sensor_id;sensor_type;location;lat;lon;timestamp;P1;durP1;ratioP1;P2;durP2;ratioP2
8993;SDS011;4532;50.886;4.700;2023-02-08T00:01:42;25.10;;;17.30;;
8993;SDS011;4532;50.886;4.700;2023-02-08T00:04:11;25.30;;;16.43;;
8993;SDS011;4532;50.886;4.700;2023-02-08T00:06:38;27.30;;;16.73;;
8993;SDS011;4532;50.886;4.700;2023-02-08T00:09:06;21.97;;;15.60;;
8993;SDS011;4532;50.886;4.700;2023-02-08T00:11:34;21.13;;;14.70;;
8993;SDS011;4532;50.886;4.700;2023-02-08T00:14:03;23.20;;;16.40;;
8993;SDS011;4532;50.886;4.700;2023-02-08T00:16:35;22.27;;;14.43;;
8993;SDS011;4532;50.886;4.700;2023-02-08T00:19:06;21.33;;;14.43;;
8993;SDS011;4532;50.886;4.700;2023-02-08T00:21:34;19.83;;;13.63;;
8993;SDS011;4532;50.886;4.700;2023-02-08T00:24:05;19.00;;;13.33;;
8993;SDS011;4532;50.886;4.700;2023-02-08T00:26:33;20.53;;;13.77;;
8993;SDS011;4532;50.886;4.700;2023-02-08T00:29:02;18.53;;;12.97;;
8993;SDS011;4532;50.886;4.700;2023-02-08T00:31:34;15.77;;;12.07;;
8993;SDS011;4532;50.886;4.700;2023-02-08T00:34:06;18.87;;;11.93;;
8993;SDS011;4532;50.886;4.700;2023-02-08T00:36:34;21.93;;;13.53;;
8993;SDS011;4532;50.886;4.700;2023-02-08T00:39:03;20.40;;;14.00;;
8993;SDS011;4532;50.886;4.700;2023-02-08T00:41:32;17.83;;;13.27;;
8993;SDS011;4532;50.886;4.700;2023-02-08T00:44:00;19.60;;;13.50;;
8993;SDS011;4532;50.886;4.700;2023-02-08T00:46:29;17.77;;;12.97;;
8993;SDS011;4532;50.886;4.700;2023-02-08T00:48:59;20.37;;;13.60;;
8993;SDS011;4532;50.886;4.700;2023-02-08T00:51:26;20.43;;;12.83;;
8993;SDS011;4532;50.886;4.700;2023-02-08T00:53:56;22.20;;;13.27;;
8993;SDS011;4532;50.886;4.700;2023-02-08T00:56:27;16.10;;;11.83;;
8993;SDS011;4532;50.886;4.700;2023-02-08T00:58:54;21.60;;;13.70;;
8993;SDS011;4532;50.886;4.700;2023-02-08T01:01:24;18.93;;;13.20;;
8993;SDS011;4532;50.886;4.700;2023-02-08T01:03:53;20.27;;;13.63;;
8993;SDS011;4532;50.886;4.700;2023-02-08T01:06:23;20.30;;;12.93;;
8993;SDS011;4532;50.886;4.700;2023-02-08T01:08:52;20.83;;;13.90;;
8993;SDS011;4532;50.886;4.700;2023-02-08T01:11:20;18.37;;;12.90;;
8993;SDS011;4532;50.886;4.700;2023-02-08T01:13:51;19.87;;;13.43;;
8993;SDS011;4532;50.886;4.700;2023-02-08T01:16:21;19.57;;;12.77;;
8993;SDS011;4532;50.886;4.700;2023-02-08T01:18:53;18.93;;;13.80;;
8993;SDS011;4532;50.886;4.700;2023-02-08T01:21:23;20.47;;;13.40;;
8993;SDS011;4532;50.886;4.700;2023-02-08T01:23:59;21.90;;;15.10;;
8993;SDS011;4532;50.886;4.700;2023-02-08T01:26:27;18.63;;;14.30;;
8993;SDS011;4532;50.886;4.700;2023-02-08T01:28:55;22.60;;;14.67;;
8993;SDS011;4532;50.886;4.700;2023-02-08T01:31:27;22.27;;;15.47;;
8993;SDS011;4532;50.886;4.700;2023-02-08T01:34:02;21.00;;;14.80;;
8993;SDS011;4532;50.886;4.700;2023-02-08T01:36:33;22.53;;;14.87;;
8993;SDS011;4532;50.886;4.700;2023-02-08T01:39:01;21.97;;;15.30;;
8993;SDS011;4532;50.886;4.700;2023-02-08T01:41:30;22.17;;;15.47;;
8993;SDS011;4532;50.886;4.700;2023-02-08T01:44:05;20.87;;;15.13;;
8993;SDS011;4532;50.886;4.700;2023-02-08T01:46:46;20.63;;;15.43;;
8993;SDS011;4532;50.886;4.700;2023-02-08T01:49:20;21.17;;;14.70;;
8993;SDS011;4532;50.886;4.700;2023-02-08T01:54:37;20.53;;;14.30;;
8993;SDS011;4532;50.886;4.700;2023-02-08T01:57:09;21.77;;;14.30;;
8993;SDS011;4532;50.886;4.700;2023-02-08T01:59:49;22.23;;;14.80;;
8993;SDS011;4532;50.886;4.700;2023-02-08T02:02:22;21.53;;;13.67;;
8993;SDS011;4532;50.886;4.700;2023-02-08T02:04:53;20.03;;;14.30;;
8993;SDS011;4532;50.886;4.700;2023-02-08T02:07:21;21.23;;;13.90;;
8993;SDS011;4532;50.886;4.700;2023-02-08T02:09:59;19.40;;;13.67;;
8993;SDS011;4532;50.886;4.700;2023-02-08T02:12:46;22.17;;;14.33;;
8993;SDS011;4532;50.886;4.700;2023-02-08T02:15:20;19.00;;;14.30;;
8993;SDS011;4532;50.886;4.700;2023-02-08T02:17:49;18.90;;;14.03;;
8993;SDS011;4532;50.886;4.700;2023-02-08T02:31:32;18.67;;;13.10;;
8993;SDS011;4532;50.886;4.700;2023-02-08T02:42:14;20.23;;;14.27;;
8993;SDS011;4532;50.886;4.700;2023-02-08T02:45:25;20.77;;;14.70;;
8993;SDS011;4532;50.886;4.700;2023-02-08T02:50:47;22.13;;;14.50;;
8993;SDS011;4532;50.886;4.700;2023-02-08T02:56:16;21.03;;;13.53;;
8993;SDS011;4532;50.886;4.700;2023-02-08T02:58:46;19.63;;;14.23;;
8993;SDS011;4532;50.886;4.700;2023-02-08T03:01:24;20.83;;;14.80;;
8993;SDS011;4532;50.886;4.700;2023-02-08T03:03:56;20.53;;;13.57;;
8993;SDS011;4532;50.886;4.700;2023-02-08T03:09:38;21.77;;;14.40;;
8993;SDS011;4532;50.886;4.700;2023-02-08T03:12:29;22.10;;;13.73;;
8993;SDS011;4532;50.886;4.700;2023-02-08T03:15:15;18.17;;;13.03;;
8993;SDS011;4532;50.886;4.700;2023-02-08T03:26:33;19.57;;;14.00;;
8993;SDS011;4532;50.886;4.700;2023-02-08T03:31:38;20.60;;;14.40;;
8993;SDS011;4532;50.886;4.700;2023-02-08T03:34:21;21.00;;;14.43;;
8993;SDS011;4532;50.886;4.700;2023-02-08T03:37:21;22.10;;;14.03;;
8993;SDS011;4532;50.886;4.700;2023-02-08T03:39:53;20.27;;;13.90;;
8993;SDS011;4532;50.886;4.700;2023-02-08T03:42:33;20.20;;;13.80;;
8993;SDS011;4532;50.886;4.700;2023-02-08T03:45:11;19.90;;;13.20;;
8993;SDS011;4532;50.886;4.700;2023-02-08T03:47:49;19.13;;;13.40;;
8993;SDS011;4532;50.886;4.700;2023-02-08T03:50:26;19.23;;;13.30;;
8993;SDS011;4532;50.886;4.700;2023-02-08T03:52:57;22.27;;;14.37;;
8993;SDS011;4532;50.886;4.700;2023-02-08T03:55:25;19.33;;;13.33;;
8993;SDS011;4532;50.886;4.700;2023-02-08T03:57:56;19.70;;;13.67;;
8993;SDS011;4532;50.886;4.700;2023-02-08T04:00:29;18.80;;;13.87;;
8993;SDS011;4532;50.886;4.700;2023-02-08T04:03:11;21.13;;;14.20;;
8993;SDS011;4532;50.886;4.700;2023-02-08T04:05:48;20.43;;;13.83;;
8993;SDS011;4532;50.886;4.700;2023-02-08T04:08:15;19.23;;;13.83;;
8993;SDS011;4532;50.886;4.700;2023-02-08T04:10:45;20.07;;;13.70;;
8993;SDS011;4532;50.886;4.700;2023-02-08T04:13:15;20.37;;;13.70;;
8993;SDS011;4532;50.886;4.700;2023-02-08T04:15:42;19.37;;;13.70;;
8993;SDS011;4532;50.886;4.700;2023-02-08T04:18:12;18.03;;;13.90;;
8993;SDS011;4532;50.886;4.700;2023-02-08T04:20:42;20.07;;;13.97;;
8993;SDS011;4532;50.886;4.700;2023-02-08T04:23:09;22.40;;;14.07;;
8993;SDS011;4532;50.886;4.700;2023-02-08T04:25:38;19.93;;;14.70;;
8993;SDS011;4532;50.886;4.700;2023-02-08T04:28:10;18.80;;;13.53;;
8993;SDS011;4532;50.886;4.700;2023-02-08T04:30:40;22.20;;;15.70;;
8993;SDS011;4532;50.886;4.700;2023-02-08T04:33:10;19.83;;;14.10;;
8993;SDS011;4532;50.886;4.700;2023-02-08T04:35:41;18.97;;;13.97;;
8993;SDS011;4532;50.886;4.700;2023-02-08T04:38:08;20.47;;;14.43;;
8993;SDS011;4532;50.886;4.700;2023-02-08T04:40:38;18.27;;;14.43;;
8993;SDS011;4532;50.886;4.700;2023-02-08T04:43:12;22.23;;;15.63;;
8993;SDS011;4532;50.886;4.700;2023-02-08T04:45:42;22.10;;;15.23;;
8993;SDS011;4532;50.886;4.700;2023-02-08T04:48:09;21.47;;;14.70;;
8993;SDS011;4532;50.886;4.700;2023-02-08T04:50:39;20.47;;;13.63;;
8993;SDS011;4532;50.886;4.700;2023-02-08T04:53:06;24.67;;;14.00;;
8993;SDS011;4532;50.886;4.700;2023-02-08T04:55:36;20.47;;;14.87;;
8993;SDS011;4532;50.886;4.700;2023-02-08T04:58:06;19.43;;;14.27;;
8993;SDS011;4532;50.886;4.700;2023-02-08T05:00:33;19.23;;;13.70;;
8993;SDS011;4532;50.886;4.700;2023-02-08T05:03:02;19.53;;;13.67;;
8993;SDS011;4532;50.886;4.700;2023-02-08T05:05:30;21.23;;;14.33;;
8993;SDS011;4532;50.886;4.700;2023-02-08T05:08:01;20.53;;;15.30;;
8993;SDS011;4532;50.886;4.700;2023-02-08T05:10:32;19.37;;;14.43;;
8993;SDS011;4532;50.886;4.700;2023-02-08T05:13:01;23.23;;;14.67;;
8993;SDS011;4532;50.886;4.700;2023-02-08T05:15:29;20.03;;;14.47;;
8993;SDS011;4532;50.886;4.700;2023-02-08T05:17:56;20.00;;;14.43;;
8993;SDS011;4532;50.886;4.700;2023-02-08T05:20:23;21.23;;;14.60;;
8993;SDS011;4532;50.886;4.700;2023-02-08T05:22:52;22.93;;;15.63;;
8993;SDS011;4532;50.886;4.700;2023-02-08T05:25:22;21.70;;;14.40;;
8993;SDS011;4532;50.886;4.700;2023-02-08T05:27:51;20.97;;;14.00;;
8993;SDS011;4532;50.886;4.700;2023-02-08T05:30:21;21.57;;;14.13;;
8993;SDS011;4532;50.886;4.700;2023-02-08T05:32:50;24.40;;;14.80;;
8993;SDS011;4532;50.886;4.700;2023-02-08T05:35:17;20.17;;;13.83;;
8993;SDS011;4532;50.886;4.700;2023-02-08T05:37:47;20.53;;;14.70;;
8993;SDS011;4532;50.886;4.700;2023-02-08T05:40:14;19.80;;;14.60;;
8993;SDS011;4532;50.886;4.700;2023-02-08T05:42:41;20.53;;;14.43;;
8993;SDS011;4532;50.886;4.700;2023-02-08T05:45:10;21.63;;;14.80;;
8993;SDS011;4532;50.886;4.700;2023-02-08T05:47:39;22.00;;;14.47;;
8993;SDS011;4532;50.886;4.700;2023-02-08T05:50:08;21.50;;;15.53;;
8993;SDS011;4532;50.886;4.700;2023-02-08T05:52:38;25.17;;;16.07;;
8993;SDS011;4532;50.886;4.700;2023-02-08T05:55:10;24.97;;;16.00;;
8993;SDS011;4532;50.886;4.700;2023-02-08T05:57:40;21.97;;;14.90;;
8993;SDS011;4532;50.886;4.700;2023-02-08T06:00:09;21.17;;;14.67;;
8993;SDS011;4532;50.886;4.700;2023-02-08T06:02:37;23.13;;;14.60;;
8993;SDS011;4532;50.886;4.700;2023-02-08T06:05:04;23.00;;;14.07;;
8993;SDS011;4532;50.886;4.700;2023-02-08T06:07:36;20.30;;;14.77;;
8993;SDS011;4532;50.886;4.700;2023-02-08T06:10:03;21.17;;;14.40;;
8993;SDS011;4532;50.886;4.700;2023-02-08T06:12:33;23.10;;;15.33;;
8993;SDS011;4532;50.886;4.700;2023-02-08T06:15:00;20.73;;;14.70;;
8993;SDS011;4532;50.886;4.700;2023-02-08T06:17:27;24.27;;;15.20;;
8993;SDS011;4532;50.886;4.700;2023-02-08T06:19:58;21.47;;;15.60;;
8993;SDS011;4532;50.886;4.700;2023-02-08T06:22:28;21.17;;;14.80;;
8993;SDS011;4532;50.886;4.700;2023-02-08T06:24:55;21.43;;;15.37;;
8993;SDS011;4532;50.886;4.700;2023-02-08T06:27:22;23.83;;;14.87;;
8993;SDS011;4532;50.886;4.700;2023-02-08T06:29:53;21.70;;;15.57;;
8993;SDS011;4532;50.886;4.700;2023-02-08T06:32:20;21.17;;;15.93;;
8993;SDS011;4532;50.886;4.700;2023-02-08T06:34:49;23.33;;;15.77;;
8993;SDS011;4532;50.886;4.700;2023-02-08T06:37:17;24.57;;;14.60;;
8993;SDS011;4532;50.886;4.700;2023-02-08T06:39:46;23.97;;;15.03;;
8993;SDS011;4532;50.886;4.700;2023-02-08T06:42:14;25.30;;;15.10;;
8993;SDS011;4532;50.886;4.700;2023-02-08T06:44:43;21.30;;;14.90;;
8993;SDS011;4532;50.886;4.700;2023-02-08T06:47:23;24.57;;;15.47;;
8993;SDS011;4532;50.886;4.700;2023-02-08T06:49:56;22.63;;;15.17;;
8993;SDS011;4532;50.886;4.700;2023-02-08T06:52:23;22.93;;;15.83;;
8993;SDS011;4532;50.886;4.700;2023-02-08T06:54:51;24.57;;;15.60;;
8993;SDS011;4532;50.886;4.700;2023-02-08T06:57:20;24.73;;;15.77;;
8993;SDS011;4532;50.886;4.700;2023-02-08T06:59:51;24.50;;;15.50;;
8993;SDS011;4532;50.886;4.700;2023-02-08T07:02:23;21.60;;;15.17;;
8993;SDS011;4532;50.886;4.700;2023-02-08T07:04:50;24.37;;;15.87;;
8993;SDS011;4532;50.886;4.700;2023-02-08T07:07:17;22.80;;;15.63;;
8993;SDS011;4532;50.886;4.700;2023-02-08T07:09:47;24.63;;;16.00;;
8993;SDS011;4532;50.886;4.700;2023-02-08T07:12:19;26.97;;;16.30;;
8993;SDS011;4532;50.886;4.700;2023-02-08T07:14:50;64.20;;;21.37;;
8993;SDS011;4532;50.886;4.700;2023-02-08T07:17:20;52.67;;;19.67;;
8993;SDS011;4532;50.886;4.700;2023-02-08T07:19:49;32.03;;;16.43;;
8993;SDS011;4532;50.886;4.700;2023-02-08T07:22:18;35.07;;;16.83;;
8993;SDS011;4532;50.886;4.700;2023-02-08T07:24:51;37.07;;;17.03;;
8993;SDS011;4532;50.886;4.700;2023-02-08T07:27:20;25.13;;;16.20;;
8993;SDS011;4532;50.886;4.700;2023-02-08T07:29:50;26.97;;;16.43;;
8993;SDS011;4532;50.886;4.700;2023-02-08T07:32:17;27.17;;;16.47;;
8993;SDS011;4532;50.886;4.700;2023-02-08T07:34:49;31.03;;;16.53;;
8993;SDS011;4532;50.886;4.700;2023-02-08T07:37:19;29.10;;;15.57;;
8993;SDS011;4532;50.886;4.700;2023-02-08T07:39:46;29.40;;;16.07;;
8993;SDS011;4532;50.886;4.700;2023-02-08T07:42:13;27.50;;;15.50;;
8993;SDS011;4532;50.886;4.700;2023-02-08T07:44:40;26.30;;;16.37;;
8993;SDS011;4532;50.886;4.700;2023-02-08T07:47:10;25.77;;;15.80;;
8993;SDS011;4532;50.886;4.700;2023-02-08T07:49:37;28.67;;;16.87;;
8993;SDS011;4532;50.886;4.700;2023-02-08T07:52:07;29.07;;;16.87;;
8993;SDS011;4532;50.886;4.700;2023-02-08T07:54:36;30.83;;;17.80;;
8993;SDS011;4532;50.886;4.700;2023-02-08T07:57:03;25.30;;;16.20;;
8993;SDS011;4532;50.886;4.700;2023-02-08T07:59:33;30.70;;;16.17;;
8993;SDS011;4532;50.886;4.700;2023-02-08T08:02:00;32.03;;;17.37;;
8993;SDS011;4532;50.886;4.700;2023-02-08T08:04:32;29.70;;;15.87;;
8993;SDS011;4532;50.886;4.700;2023-02-08T08:06:59;30.30;;;16.63;;
8993;SDS011;4532;50.886;4.700;2023-02-08T08:09:26;25.97;;;17.17;;
8993;SDS011;4532;50.886;4.700;2023-02-08T08:11:54;25.87;;;16.80;;
8993;SDS011;4532;50.886;4.700;2023-02-08T08:14:25;26.93;;;16.60;;
8993;SDS011;4532;50.886;4.700;2023-02-08T08:16:55;27.40;;;16.73;;
8993;SDS011;4532;50.886;4.700;2023-02-08T08:19:22;23.40;;;15.07;;
8993;SDS011;4532;50.886;4.700;2023-02-08T08:21:49;27.73;;;15.87;;
8993;SDS011;4532;50.886;4.700;2023-02-08T08:24:19;25.30;;;15.43;;
8993;SDS011;4532;50.886;4.700;2023-02-08T08:26:46;25.47;;;15.50;;
8993;SDS011;4532;50.886;4.700;2023-02-08T08:29:16;25.97;;;16.43;;
8993;SDS011;4532;50.886;4.700;2023-02-08T08:31:48;25.40;;;16.60;;
8993;SDS011;4532;50.886;4.700;2023-02-08T08:34:18;26.43;;;17.43;;
8993;SDS011;4532;50.886;4.700;2023-02-08T08:36:52;27.27;;;16.13;;
8993;SDS011;4532;50.886;4.700;2023-02-08T08:39:22;23.07;;;15.53;;
8993;SDS011;4532;50.886;4.700;2023-02-08T08:41:55;25.67;;;16.20;;
8993;SDS011;4532;50.886;4.700;2023-02-08T08:44:24;23.00;;;15.33;;
8993;SDS011;4532;50.886;4.700;2023-02-08T08:46:56;23.30;;;15.57;;
8993;SDS011;4532;50.886;4.700;2023-02-08T08:49:28;23.53;;;15.77;;
8993;SDS011;4532;50.886;4.700;2023-02-08T08:51:56;25.90;;;16.03;;
8993;SDS011;4532;50.886;4.700;2023-02-08T08:54:26;29.70;;;16.67;;
8993;SDS011;4532;50.886;4.700;2023-02-08T08:56:55;26.03;;;15.30;;
8993;SDS011;4532;50.886;4.700;2023-02-08T08:59:22;28.70;;;16.10;;
8993;SDS011;4532;50.886;4.700;2023-02-08T09:01:52;25.73;;;15.50;;
8993;SDS011;4532;50.886;4.700;2023-02-08T09:04:25;26.50;;;16.30;;
8993;SDS011;4532;50.886;4.700;2023-02-08T09:06:52;35.77;;;16.60;;
8993;SDS011;4532;50.886;4.700;2023-02-08T09:09:22;28.77;;;15.57;;
8993;SDS011;4532;50.886;4.700;2023-02-08T09:11:51;27.17;;;15.80;;
8993;SDS011;4532;50.886;4.700;2023-02-08T09:14:21;23.87;;;14.73;;
8993;SDS011;4532;50.886;4.700;2023-02-08T09:16:55;23.80;;;13.83;;
8993;SDS011;4532;50.886;4.700;2023-02-08T09:19:25;26.93;;;14.97;;
8993;SDS011;4532;50.886;4.700;2023-02-08T09:21:55;23.10;;;14.87;;
8993;SDS011;4532;50.886;4.700;2023-02-08T09:24:26;22.93;;;14.23;;
8993;SDS011;4532;50.886;4.700;2023-02-08T09:26:55;25.23;;;14.47;;
8993;SDS011;4532;50.886;4.700;2023-02-08T09:29:27;19.37;;;13.10;;
8993;SDS011;4532;50.886;4.700;2023-02-08T09:32:00;20.43;;;13.30;;
8993;SDS011;4532;50.886;4.700;2023-02-08T09:34:28;19.27;;;12.70;;
8993;SDS011;4532;50.886;4.700;2023-02-08T09:36:57;17.07;;;12.40;;
8993;SDS011;4532;50.886;4.700;2023-02-08T09:39:27;21.33;;;12.40;;
8993;SDS011;4532;50.886;4.700;2023-02-08T09:53:13;14.90;;;10.07;;
8993;SDS011;4532;50.886;4.700;2023-02-08T09:55:43;15.57;;;10.13;;
8993;SDS011;4532;50.886;4.700;2023-02-08T10:00:59;15.57;;;9.90;;
8993;SDS011;4532;50.886;4.700;2023-02-08T10:03:33;15.07;;;9.20;;
8993;SDS011;4532;50.886;4.700;2023-02-08T10:06:11;13.23;;;8.97;;
8993;SDS011;4532;50.886;4.700;2023-02-08T10:08:44;14.30;;;9.40;;
8993;SDS011;4532;50.886;4.700;2023-02-08T10:33:36;10.03;;;7.00;;
8993;SDS011;4532;50.886;4.700;2023-02-08T10:36:30;10.73;;;7.43;;
8993;SDS011;4532;50.886;4.700;2023-02-08T10:39:01;12.07;;;7.47;;
8993;SDS011;4532;50.886;4.700;2023-02-08T10:41:37;11.83;;;7.40;;
8993;SDS011;4532;50.886;4.700;2023-02-08T10:46:46;8.57;;;6.43;;
8993;SDS011;4532;50.886;4.700;2023-02-08T10:49:26;9.67;;;7.13;;
8993;SDS011;4532;50.886;4.700;2023-02-08T10:52:03;8.50;;;6.40;;
8993;SDS011;4532;50.886;4.700;2023-02-08T10:54:32;9.23;;;6.30;;
8993;SDS011;4532;50.886;4.700;2023-02-08T10:57:03;11.13;;;7.17;;
8993;SDS011;4532;50.886;4.700;2023-02-08T11:00:16;11.83;;;6.47;;
8993;SDS011;4532;50.886;4.700;2023-02-08T11:02:40;11.37;;;6.33;;
8993;SDS011;4532;50.886;4.700;2023-02-08T11:05:14;10.03;;;6.57;;
8993;SDS011;4532;50.886;4.700;2023-02-08T11:07:43;9.03;;;6.40;;
8993;SDS011;4532;50.886;4.700;2023-02-08T11:15:26;8.30;;;5.57;;
8993;SDS011;4532;50.886;4.700;2023-02-08T11:18:05;7.73;;;5.07;;
8993;SDS011;4532;50.886;4.700;2023-02-08T11:20:46;8.20;;;5.63;;
8993;SDS011;4532;50.886;4.700;2023-02-08T11:28:41;5.23;;;3.80;;
8993;SDS011;4532;50.886;4.700;2023-02-08T11:31:19;5.47;;;3.80;;
8993;SDS011;4532;50.886;4.700;2023-02-08T11:36:28;4.43;;;3.10;;
8993;SDS011;4532;50.886;4.700;2023-02-08T11:39:03;6.37;;;3.67;;
8993;SDS011;4532;50.886;4.700;2023-02-08T11:41:45;5.57;;;3.70;;
8993;SDS011;4532;50.886;4.700;2023-02-08T11:44:16;5.07;;;3.13;;
8993;SDS011;4532;50.886;4.700;2023-02-08T11:46:49;6.17;;;3.43;;
8993;SDS011;4532;50.886;4.700;2023-02-08T11:49:23;5.97;;;3.67;;
8993;SDS011;4532;50.886;4.700;2023-02-08T11:51:57;5.23;;;3.70;;
8993;SDS011;4532;50.886;4.700;2023-02-08T11:57:14;7.10;;;3.63;;
8993;SDS011;4532;50.886;4.700;2023-02-08T12:00:11;4.63;;;3.40;;
8993;SDS011;4532;50.886;4.700;2023-02-08T12:02:49;5.17;;;3.50;;
8993;SDS011;4532;50.886;4.700;2023-02-08T12:05:18;7.93;;;4.10;;
8993;SDS011;4532;50.886;4.700;2023-02-08T12:11:03;4.70;;;3.17;;
8993;SDS011;4532;50.886;4.700;2023-02-08T12:14:25;5.53;;;3.87;;
8993;SDS011;4532;50.886;4.700;2023-02-08T12:22:36;5.23;;;3.40;;
8993;SDS011;4532;50.886;4.700;2023-02-08T12:36:34;6.00;;;3.13;;
8993;SDS011;4532;50.886;4.700;2023-02-08T12:39:43;3.30;;;2.70;;
8993;SDS011;4532;50.886;4.700;2023-02-08T12:42:58;4.33;;;2.90;;
8993;SDS011;4532;50.886;4.700;2023-02-08T12:48:39;5.20;;;3.10;;
8993;SDS011;4532;50.886;4.700;2023-02-08T12:51:05;5.40;;;2.97;;
8993;SDS011;4532;50.886;4.700;2023-02-08T12:53:40;5.57;;;3.00;;
8993;SDS011;4532;50.886;4.700;2023-02-08T12:56:12;4.33;;;3.00;;
8993;SDS011;4532;50.886;4.700;2023-02-08T13:01:13;6.10;;;2.80;;
8993;SDS011;4532;50.886;4.700;2023-02-08T13:04:05;4.97;;;3.10;;
8993;SDS011;4532;50.886;4.700;2023-02-08T13:07:10;9.57;;;4.00;;
8993;SDS011;4532;50.886;4.700;2023-02-08T13:09:38;8.87;;;3.80;;
8993;SDS011;4532;50.886;4.700;2023-02-08T13:12:26;5.80;;;3.57;;
8993;SDS011;4532;50.886;4.700;2023-02-08T13:17:57;11.53;;;3.80;;
8993;SDS011;4532;50.886;4.700;2023-02-08T13:23:14;5.67;;;3.60;;
8993;SDS011;4532;50.886;4.700;2023-02-08T13:25:49;5.13;;;4.03;;
8993;SDS011;4532;50.886;4.700;2023-02-08T13:28:21;9.63;;;4.03;;
8993;SDS011;4532;50.886;4.700;2023-02-08T13:30:53;5.50;;;4.00;;
8993;SDS011;4532;50.886;4.700;2023-02-08T13:36:30;5.30;;;3.50;;
8993;SDS011;4532;50.886;4.700;2023-02-08T13:39:00;5.17;;;3.67;;
8993;SDS011;4532;50.886;4.700;2023-02-08T13:41:32;7.80;;;3.90;;
8993;SDS011;4532;50.886;4.700;2023-02-08T13:44:08;5.73;;;3.73;;
8993;SDS011;4532;50.886;4.700;2023-02-08T13:46:46;5.13;;;3.70;;
8993;SDS011;4532;50.886;4.700;2023-02-08T13:52:10;8.37;;;3.97;;
8993;SDS011;4532;50.886;4.700;2023-02-08T13:54:40;5.97;;;4.10;;
8993;SDS011;4532;50.886;4.700;2023-02-08T14:00:21;5.53;;;3.70;;
8993;SDS011;4532;50.886;4.700;2023-02-08T14:03:00;4.53;;;3.57;;
8993;SDS011;4532;50.886;4.700;2023-02-08T14:21:45;6.33;;;3.00;;
8993;SDS011;4532;50.886;4.700;2023-02-08T14:24:26;6.50;;;3.13;;
8993;SDS011;4532;50.886;4.700;2023-02-08T14:29:36;6.67;;;3.27;;
8993;SDS011;4532;50.886;4.700;2023-02-08T14:32:06;5.97;;;3.13;;
8993;SDS011;4532;50.886;4.700;2023-02-08T14:34:37;6.53;;;3.20;;
8993;SDS011;4532;50.886;4.700;2023-02-08T14:39:46;5.07;;;3.50;;
8993;SDS011;4532;50.886;4.700;2023-02-08T14:42:52;5.80;;;3.63;;
8993;SDS011;4532;50.886;4.700;2023-02-08T14:45:37;7.20;;;3.87;;
8993;SDS011;4532;50.886;4.700;2023-02-08T14:51:13;5.40;;;2.83;;
8993;SDS011;4532;50.886;4.700;2023-02-08T14:53:53;4.87;;;3.10;;
8993;SDS011;4532;50.886;4.700;2023-02-08T14:56:30;5.73;;;3.33;;
8993;SDS011;4532;50.886;4.700;2023-02-08T14:59:15;5.43;;;2.97;;
8993;SDS011;4532;50.886;4.700;2023-02-08T15:04:26;5.63;;;3.07;;
8993;SDS011;4532;50.886;4.700;2023-02-08T15:07:07;6.80;;;3.40;;
8993;SDS011;4532;50.886;4.700;2023-02-08T15:09:49;4.63;;;3.50;;
8993;SDS011;4532;50.886;4.700;2023-02-08T15:12:30;5.83;;;3.47;;
8993;SDS011;4532;50.886;4.700;2023-02-08T15:15:03;8.83;;;3.53;;
8993;SDS011;4532;50.886;4.700;2023-02-08T15:17:44;5.47;;;3.10;;
8993;SDS011;4532;50.886;4.700;2023-02-08T15:20:20;5.23;;;3.50;;
8993;SDS011;4532;50.886;4.700;2023-02-08T15:22:48;6.13;;;3.27;;
8993;SDS011;4532;50.886;4.700;2023-02-08T15:28:19;4.40;;;3.30;;
8993;SDS011;4532;50.886;4.700;2023-02-08T15:33:23;6.77;;;3.73;;
8993;SDS011;4532;50.886;4.700;2023-02-08T15:36:03;4.97;;;3.10;;
8993;SDS011;4532;50.886;4.700;2023-02-08T15:38:35;3.43;;;2.70;;
8993;SDS011;4532;50.886;4.700;2023-02-08T15:41:11;4.30;;;3.00;;
8993;SDS011;4532;50.886;4.700;2023-02-08T15:43:42;5.23;;;3.30;;
8993;SDS011;4532;50.886;4.700;2023-02-08T15:46:19;3.90;;;3.00;;
8993;SDS011;4532;50.886;4.700;2023-02-08T15:48:48;4.70;;;3.27;;
8993;SDS011;4532;50.886;4.700;2023-02-08T15:51:19;4.73;;;2.77;;
8993;SDS011;4532;50.886;4.700;2023-02-08T15:53:50;4.83;;;3.10;;
8993;SDS011;4532;50.886;4.700;2023-02-08T15:56:24;6.40;;;3.30;;
8993;SDS011;4532;50.886;4.700;2023-02-08T15:59:06;4.30;;;3.23;;
8993;SDS011;4532;50.886;4.700;2023-02-08T16:01:50;5.07;;;3.13;;
8993;SDS011;4532;50.886;4.700;2023-02-08T16:04:18;5.53;;;3.33;;
8993;SDS011;4532;50.886;4.700;2023-02-08T16:06:51;7.17;;;3.43;;
8993;SDS011;4532;50.886;4.700;2023-02-08T16:09:22;8.67;;;3.40;;
8993;SDS011;4532;50.886;4.700;2023-02-08T16:11:54;4.53;;;3.20;;
8993;SDS011;4532;50.886;4.700;2023-02-08T16:14:29;5.50;;;3.23;;
8993;SDS011;4532;50.886;4.700;2023-02-08T16:20:28;5.03;;;3.07;;
8993;SDS011;4532;50.886;4.700;2023-02-08T16:23:02;6.17;;;2.90;;
8993;SDS011;4532;50.886;4.700;2023-02-08T16:25:48;6.10;;;3.17;;
8993;SDS011;4532;50.886;4.700;2023-02-08T16:28:28;6.60;;;4.07;;
8993;SDS011;4532;50.886;4.700;2023-02-08T16:31:01;4.70;;;2.90;;
8993;SDS011;4532;50.886;4.700;2023-02-08T16:33:33;5.73;;;3.30;;
8993;SDS011;4532;50.886;4.700;2023-02-08T16:36:03;6.40;;;3.43;;
8993;SDS011;4532;50.886;4.700;2023-02-08T16:38:32;4.77;;;3.20;;
8993;SDS011;4532;50.886;4.700;2023-02-08T16:41:04;4.70;;;3.10;;
8993;SDS011;4532;50.886;4.700;2023-02-08T16:43:39;4.87;;;3.37;;
8993;SDS011;4532;50.886;4.700;2023-02-08T16:48:52;7.33;;;3.70;;
8993;SDS011;4532;50.886;4.700;2023-02-08T16:51:24;5.10;;;3.43;;
8993;SDS011;4532;50.886;4.700;2023-02-08T16:53:54;5.30;;;3.47;;
8993;SDS011;4532;50.886;4.700;2023-02-08T16:56:31;5.67;;;3.90;;
8993;SDS011;4532;50.886;4.700;2023-02-08T16:59:01;8.50;;;4.07;;
8993;SDS011;4532;50.886;4.700;2023-02-08T17:01:30;5.83;;;3.63;;
8993;SDS011;4532;50.886;4.700;2023-02-08T17:04:01;6.70;;;3.73;;
8993;SDS011;4532;50.886;4.700;2023-02-08T17:06:33;7.63;;;4.00;;
8993;SDS011;4532;50.886;4.700;2023-02-08T17:09:03;6.33;;;3.27;;
8993;SDS011;4532;50.886;4.700;2023-02-08T17:11:31;5.70;;;3.70;;
8993;SDS011;4532;50.886;4.700;2023-02-08T17:14:02;7.43;;;3.80;;
8993;SDS011;4532;50.886;4.700;2023-02-08T17:16:33;8.30;;;3.90;;
8993;SDS011;4532;50.886;4.700;2023-02-08T17:19:04;8.60;;;3.77;;
8993;SDS011;4532;50.886;4.700;2023-02-08T17:21:31;7.27;;;3.80;;
8993;SDS011;4532;50.886;4.700;2023-02-08T17:23:59;6.13;;;3.50;;
8993;SDS011;4532;50.886;4.700;2023-02-08T17:26:28;6.47;;;4.03;;
8993;SDS011;4532;50.886;4.700;2023-02-08T17:29:02;12.17;;;4.70;;
8993;SDS011;4532;50.886;4.700;2023-02-08T17:31:34;9.30;;;4.40;;
8993;SDS011;4532;50.886;4.700;2023-02-08T17:34:06;13.03;;;4.30;;
8993;SDS011;4532;50.886;4.700;2023-02-08T17:36:35;8.10;;;4.13;;
8993;SDS011;4532;50.886;4.700;2023-02-08T17:39:07;7.90;;;3.80;;
8993;SDS011;4532;50.886;4.700;2023-02-08T17:41:40;6.57;;;3.80;;
8993;SDS011;4532;50.886;4.700;2023-02-08T17:44:14;5.37;;;3.90;;
8993;SDS011;4532;50.886;4.700;2023-02-08T17:46:43;7.77;;;3.97;;
8993;SDS011;4532;50.886;4.700;2023-02-08T17:49:11;7.80;;;3.67;;
8993;SDS011;4532;50.886;4.700;2023-02-08T17:51:43;6.57;;;4.20;;
8993;SDS011;4532;50.886;4.700;2023-02-08T17:54:13;5.70;;;4.20;;
8993;SDS011;4532;50.886;4.700;2023-02-08T17:56:43;7.67;;;3.83;;
8993;SDS011;4532;50.886;4.700;2023-02-08T17:59:15;6.77;;;3.97;;
8993;SDS011;4532;50.886;4.700;2023-02-08T18:01:42;8.03;;;4.50;;
8993;SDS011;4532;50.886;4.700;2023-02-08T18:04:11;8.40;;;4.43;;
8993;SDS011;4532;50.886;4.700;2023-02-08T18:06:41;9.53;;;6.33;;
8993;SDS011;4532;50.886;4.700;2023-02-08T18:09:10;11.40;;;6.00;;
8993;SDS011;4532;50.886;4.700;2023-02-08T18:11:37;10.87;;;6.73;;
8993;SDS011;4532;50.886;4.700;2023-02-08T18:14:07;9.73;;;5.70;;
8993;SDS011;4532;50.886;4.700;2023-02-08T18:16:34;10.27;;;5.40;;
8993;SDS011;4532;50.886;4.700;2023-02-08T18:19:04;8.80;;;5.13;;
8993;SDS011;4532;50.886;4.700;2023-02-08T18:21:35;9.70;;;5.43;;
8993;SDS011;4532;50.886;4.700;2023-02-08T18:24:03;7.97;;;5.30;;
8993;SDS011;4532;50.886;4.700;2023-02-08T18:26:34;11.50;;;5.80;;